Time;durP1;ratioP1;P1;durP2;ratioP2;P2;SDS_P1;SDS_P2;PMS_P1;PMS_P2;Temp;Humidity;BMP_temperature;BMP_pressure;BME280_temperature;BME280_humidity;BME280_pressure;Samples;Min_cycle;Max_cycle;Signal;HPM_P1;HPM_P2
2022/11/15 00:00:50;;;;;;;0.60;0.60;;;;;;;7.45;100.00;100142.66;5050123;28;20260;-65
2022/11/15 00:03:18;;;;;;;0.70;0.70;;;;;;;7.20;100.00;100096.91;5049655;28;20197;-65
2022/11/15 00:05:46;;;;;;;0.80;0.80;;;;;;;7.57;100.00;100142.56;5050398;28;20197;-65
2022/11/15 00:08:13;;;;;;;0.50;0.50;;;;;;;7.52;100.00;100129.00;5050393;28;20653;-65
2022/11/15 00:10:39;;;;;;;0.80;0.80;;;;;;;7.66;100.00;100139.97;5049427;28;20235;-65
2022/11/15 00:13:07;;;;;;;1.00;1.00;;;;;;;7.69;100.00;100138.22;5050117;28;20201;-65
2022/11/15 00:15:36;;;;;;;0.73;0.73;;;;;;;7.73;100.00;100137.38;5046824;28;20239;-65
2022/11/15 00:18:04;;;;;;;0.63;0.63;;;;;;;7.72;100.00;100142.50;5052034;28;20653;-65
2022/11/15 00:20:31;;;;;;;5.83;1.10;;;;;;;7.73;100.00;100145.03;5053951;28;20197;-65
2022/11/15 00:22:58;;;;;;;0.50;0.50;;;;;;;7.71;100.00;100144.19;5053467;28;20197;-65
2022/11/15 00:25:24;;;;;;;0.60;0.60;;;;;;;7.61;100.00;100140.00;5054225;28;20196;-65
2022/11/15 00:27:52;;;;;;;0.60;0.60;;;;;;;7.68;100.00;100145.91;5053576;28;20251;-65
2022/11/15 00:30:19;;;;;;;0.60;0.60;;;;;;;7.55;100.00;100149.41;5053951;28;20236;-65
2022/11/15 00:32:45;;;;;;;0.97;0.97;;;;;;;7.52;100.00;100149.41;5053700;28;20715;-65
2022/11/15 00:35:14;;;;;;;0.50;0.50;;;;;;;7.52;100.00;100152.81;5053401;28;20570;-65
2022/11/15 00:37:41;;;;;;;0.50;0.50;;;;;;;7.36;100.00;100124.00;5053979;28;20235;-65
2022/11/15 00:40:09;;;;;;;0.60;0.60;;;;;;;7.42;100.00;100137.56;5053844;28;20193;-65
2022/11/15 00:42:36;;;;;;;0.50;0.50;;;;;;;7.35;100.00;100137.59;5053554;28;20209;-65
2022/11/15 00:45:03;;;;;;;0.60;0.60;;;;;;;7.23;100.00;100117.28;5053351;28;20712;-65
2022/11/15 00:47:29;;;;;;;0.77;0.77;;;;;;;7.37;100.00;100132.47;5053212;28;20197;-65
2022/11/15 00:49:56;;;;;;;0.70;0.70;;;;;;;7.43;100.00;100134.19;5052952;28;20208;-65
2022/11/15 00:52:24;;;;;;;0.50;0.50;;;;;;;7.43;100.00;100134.19;5053265;28;20231;-65
2022/11/15 00:54:51;;;;;;;0.70;0.70;;;;;;;7.46;100.00;100134.16;5053335;28;20270;-65
2022/11/15 00:57:18;;;;;;;0.57;0.57;;;;;;;7.48;100.00;100132.44;5053780;28;20201;-65
2022/11/15 00:59:45;;;;;;;0.60;0.60;;;;;;;7.50;100.00;100134.09;5053678;28;20684;-65
2022/11/15 01:02:12;;;;;;;0.53;0.53;;;;;;;7.55;100.00;100136.66;5053089;28;20204;-65
2022/11/15 01:04:39;;;;;;;0.73;0.73;;;;;;;7.53;100.00;100135.81;5052757;28;20686;-65
2022/11/15 01:07:05;;;;;;;0.50;0.50;;;;;;;7.38;100.00;100101.88;5052701;28;20229;-65
2022/11/15 01:09:34;;;;;;;0.87;0.80;;;;;;;7.41;100.00;100131.63;5050577;28;20201;-64
2022/11/15 01:12:00;;;;;;;1.27;1.27;;;;;;;7.38;100.00;100127.38;5050792;28;20196;-65
2022/11/15 01:14:27;;;;;;;0.60;0.60;;;;;;;7.42;100.00;100122.25;5052469;28;20215;-65
2022/11/15 01:16:54;;;;;;;0.80;0.80;;;;;;;7.36;100.00;100121.47;5052668;28;20216;-65
2022/11/15 01:19:21;;;;;;;0.53;0.53;;;;;;;7.32;100.00;100117.22;5052732;28;20619;-65
2022/11/15 01:21:49;;;;;;;0.50;0.50;;;;;;;7.28;100.00;100120.66;5052509;28;20197;-64
2022/11/15 01:24:16;;;;;;;0.60;0.60;;;;;;;7.23;100.00;100112.19;5051537;28;20263;-65
2022/11/15 01:26:44;;;;;;;0.90;0.90;;;;;;;7.20;100.00;100114.75;5052956;28;20643;-65
2022/11/15 01:29:11;;;;;;;0.47;0.47;;;;;;;7.15;100.00;100119.00;5051807;28;20196;-64
2022/11/15 01:31:38;;;;;;;0.60;0.60;;;;;;;7.14;100.00;100114.75;5052564;28;20204;-65
2022/11/15 01:34:05;;;;;;;0.60;0.60;;;;;;;7.10;100.00;100113.09;5052626;28;20205;-65
2022/11/15 01:36:31;;;;;;;1.00;0.90;;;;;;;6.97;100.00;100119.09;5052046;28;20213;-64
2022/11/15 01:38:59;;;;;;;0.70;0.70;;;;;;;6.94;100.00;100114.03;5052807;28;20572;-65
2022/11/15 01:41:28;;;;;;;1.37;1.37;;;;;;;6.86;100.00;100090.25;5051375;28;20196;-65
2022/11/15 01:43:58;;;;;;;1.33;1.33;;;;;;;6.92;100.00;100102.97;5052711;28;20630;-65
2022/11/15 01:46:34;;;;;;;0.60;0.60;;;;;;;6.91;100.00;100106.38;5052510;28;20193;-65
2022/11/15 01:49:06;;;;;;;0.77;0.77;;;;;;;6.91;100.00;100098.75;5052599;28;20200;-65
2022/11/15 01:51:34;;;;;;;1.03;1.03;;;;;;;6.97;100.00;100111.47;5050950;28;20228;-65
2022/11/15 01:54:07;;;;;;;0.90;0.90;;;;;;;6.98;100.00;100099.56;5052038;28;20201;-65
2022/11/15 01:56:39;;;;;;;0.60;0.60;;;;;;;6.97;100.00;100098.72;5052036;28;20212;-65
2022/11/15 01:59:09;;;;;;;0.63;0.63;;;;;;;6.93;100.00;100102.13;5052333;28;20200;-65
2022/11/15 02:01:36;;;;;;;0.80;0.80;;;;;;;6.97;100.00;100101.25;5052352;28;20669;-65
2022/11/15 02:04:08;;;;;;;0.87;0.87;;;;;;;7.00;100.00;100103.78;5052292;28;20205;-65
2022/11/15 02:06:36;;;;;;;1.00;1.00;;;;;;;7.00;100.00;100093.59;5051479;28;20205;-65
2022/11/15 02:09:04;;;;;;;0.60;0.60;;;;;;;7.02;100.00;100103.78;5051099;28;20205;-65
2022/11/15 02:11:31;;;;;;;0.50;0.50;;;;;;;7.03;100.00;100108.88;5050834;28;20267;-65
2022/11/15 02:14:00;;;;;;;0.50;0.50;;;;;;;7.04;100.00;100100.38;5051507;28;20670;-64
2022/11/15 02:16:36;;;;;;;0.83;0.83;;;;;;;7.07;100.00;100100.38;5050618;28;20228;-65
2022/11/15 02:19:13;;;;;;;0.63;0.63;;;;;;;7.02;100.00;100081.69;5050202;28;20673;-65
2022/11/15 02:21:45;;;;;;;0.60;0.60;;;;;;;7.15;100.00;100105.41;5051276;28;20203;-65
2022/11/15 02:24:45;;;;;;;0.63;0.63;;;;;;;7.18;100.00;100103.69;5051829;28;20607;-65
2022/11/15 02:27:47;;;;;;;0.60;0.60;;;;;;;7.15;100.00;100083.31;5047798;28;20197;-65
2022/11/15 02:30:30;;;;;;;0.80;0.80;;;;;;;7.31;100.00;100095.13;5050795;28;20196;-65
2022/11/15 02:33:03;;;;;;;1.13;1.13;;;;;;;7.36;100.00;100095.09;5051582;28;20200;-65
2022/11/15 02:35:39;;;;;;;1.13;1.13;;;;;;;7.42;100.00;100101.84;5051535;28;20299;-65
2022/11/15 02:38:13;;;;;;;0.60;0.60;;;;;;;7.25;100.00;100076.44;5048799;28;20220;-65
2022/11/15 02:40:47;;;;;;;1.70;1.70;;;;;;;7.48;100.00;100096.72;5051099;28;20197;-65
2022/11/15 02:46:12;;;;;;;0.60;0.60;;;;;;;7.60;100.00;100091.53;5051279;28;20242;-65
2022/11/15 02:48:40;;;;;;;0.67;0.67;;;;;;;7.59;100.00;100084.75;5050962;28;20258;-65
2022/11/15 02:51:07;;;;;;;0.80;0.80;;;;;;;7.62;100.00;100088.13;5050799;28;20220;-65
2022/11/15 02:53:34;;;;;;;0.50;0.50;;;;;;;7.62;100.00;100082.16;5048905;28;20197;-65
2022/11/15 02:56:01;;;;;;;0.50;0.50;;;;;;;7.70;100.00;100095.69;5050928;28;20213;-65
2022/11/15 02:59:09;;;;;;;0.70;0.70;;;;;;;7.70;100.00;100088.03;5051138;28;20205;-65
2022/11/15 03:01:55;;;;;;;0.57;0.57;;;;;;;7.72;100.00;100083.81;5050753;28;20259;-65
2022/11/15 03:04:36;;;;;;;0.50;0.50;;;;;;;7.71;100.00;100084.66;5051465;28;20653;-65
2022/11/15 03:07:12;;;;;;;0.53;0.53;;;;;;;7.73;100.00;100088.03;5048660;28;20707;-65
2022/11/15 03:09:49;;;;;;;0.60;0.60;;;;;;;7.74;100.00;100088.03;5050653;28;20287;-65
2022/11/15 03:12:25;;;;;;;0.70;0.70;;;;;;;7.77;100.00;100085.44;5047498;28;20257;-65
2022/11/15 03:14:58;;;;;;;0.50;0.50;;;;;;;7.76;100.00;100088.00;5050337;28;20204;-65
2022/11/15 03:17:29;;;;;;;0.77;0.77;;;;;;;7.68;100.00;100074.47;5050295;28;20842;-64
2022/11/15 03:19:59;;;;;;;0.50;0.50;;;;;;;7.74;100.00;100084.63;5050652;28;20202;-65
2022/11/15 03:22:30;;;;;;;0.60;0.60;;;;;;;7.73;100.00;100088.03;5050662;28;20588;-65
2022/11/15 03:25:01;;;;;;;0.50;0.50;;;;;;;7.73;100.00;100082.91;5050290;28;20193;-65
2022/11/15 03:27:32;;;;;;;0.50;0.50;;;;;;;7.66;100.00;100082.13;5050776;28;20576;-65
2022/11/15 03:30:03;;;;;;;0.80;0.80;;;;;;;7.69;100.00;100086.38;5050611;28;20193;-65
2022/11/15 03:32:36;;;;;;;0.80;0.80;;;;;;;7.69;100.00;100086.38;5050701;28;20250;-65
2022/11/15 03:35:07;;;;;;;0.90;0.90;;;;;;;7.73;100.00;100080.38;5050463;28;20576;-65
2022/11/15 03:37:39;;;;;;;0.70;0.70;;;;;;;7.75;100.00;100076.13;5050259;28;20200;-65
2022/11/15 03:40:07;;;;;;;0.70;0.70;;;;;;;7.75;100.00;100071.00;5050456;28;20561;-65
2022/11/15 03:42:43;;;;;;;0.70;0.70;;;;;;;7.70;100.00;100057.44;5050278;28;20204;-65
2022/11/15 03:45:15;;;;;;;1.20;1.20;;;;;;;7.81;100.00;100070.97;5050494;28;20209;-65
2022/11/15 03:47:49;;;;;;;0.57;0.57;;;;;;;7.84;100.00;100060.72;5048245;28;20204;-65
2022/11/15 03:50:22;;;;;;;0.50;0.50;;;;;;;7.86;100.00;100053.88;5049904;28;20200;-65
2022/11/15 03:52:50;;;;;;;0.57;0.57;;;;;;;7.88;100.00;100052.19;5050776;28;20211;-65
2022/11/15 03:55:19;;;;;;;1.10;0.97;;;;;;;7.86;100.00;100043.69;5054361;28;20197;-64
2022/11/15 03:57:49;;;;;;;0.93;0.93;;;;;;;7.89;100.00;100046.19;5054651;28;20197;-65
2022/11/15 04:00:16;;;;;;;0.43;0.43;;;;;;;7.88;100.00;100047.09;5053232;28;20201;-65
2022/11/15 04:02:45;;;;;;;0.77;0.77;;;;;;;7.87;100.00;100042.81;5054032;28;20208;-65
2022/11/15 04:05:11;;;;;;;0.50;0.50;;;;;;;7.86;100.00;100038.56;5051225;28;20212;-65
2022/11/15 04:07:38;;;;;;;0.60;0.60;;;;;;;7.86;100.00;100038.56;5053790;28;20201;-65
2022/11/15 04:10:06;;;;;;;1.07;1.07;;;;;;;7.94;100.00;100041.91;5053142;28;20584;-65
2022/11/15 04:12:34;;;;;;;1.23;1.13;;;;;;;7.95;100.00;100042.75;5054396;28;20197;-65
2022/11/15 04:15:10;;;;;;;0.80;0.80;;;;;;;7.98;100.00;100038.44;5053882;28;20201;-65
2022/11/15 04:17:39;;;;;;;0.63;0.63;;;;;;;7.98;100.00;100033.34;5054065;28;20603;-65
2022/11/15 04:25:40;;;;;;;0.50;0.50;;;;;;;7.92;100.00;100030.84;5053812;28;20196;-65
2022/11/15 04:28:07;;;;;;;0.63;0.63;;;;;;;8.00;100.00;100034.19;5054019;28;20643;-65
2022/11/15 04:30:33;;;;;;;0.60;0.60;;;;;;;8.04;100.00;100035.88;5052813;28;20782;-65
2022/11/15 04:33:00;;;;;;;0.50;0.50;;;;;;;8.06;100.00;100029.03;5051674;28;20649;-65
2022/11/15 04:35:28;;;;;;;0.70;0.70;;;;;;;8.05;100.00;100029.88;5053663;28;20622;-65
2022/11/15 04:37:54;;;;;;;0.60;0.60;;;;;;;7.98;100.00;100012.09;5054109;28;20610;-65
2022/11/15 04:40:21;;;;;;;0.50;0.50;;;;;;;8.09;100.00;100036.66;5053123;28;20288;-66
2022/11/15 04:42:48;;;;;;;0.60;0.60;;;;;;;8.11;100.00;100029.81;5052835;28;20193;-66
2022/11/15 04:45:15;;;;;;;0.60;0.60;;;;;;;8.11;100.00;100027.25;5053817;28;20201;-66
2022/11/15 04:47:45;;;;;;;0.60;0.60;;;;;;;8.12;100.00;100031.50;5053750;28;20209;-66
2022/11/15 04:50:13;;;;;;;0.57;0.57;;;;;;;8.13;100.00;100025.56;5053609;28;20192;-66
2022/11/15 04:52:43;;;;;;;0.70;0.70;;;;;;;8.13;100.00;100030.66;5053280;28;20262;-66
2022/11/15 04:55:10;;;;;;;1.17;1.17;;;;;;;8.14;100.00;100031.50;5053637;28;20204;-66
2022/11/15 04:57:37;;;;;;;3.70;1.33;;;;;;;8.12;100.00;100023.84;5051799;28;20685;-66
2022/11/15 05:00:07;;;;;;;0.57;0.57;;;;;;;8.14;100.00;100011.91;5052707;28;20193;-67
2022/11/15 05:05:15;;;;;;;0.57;0.57;;;;;;;8.16;100.00;100022.13;5051870;28;20188;-66
2022/11/15 05:07:43;;;;;;;0.60;0.60;;;;;;;8.13;100.00;100029.81;5053054;28;20681;-66
2022/11/15 05:10:10;;;;;;;0.87;0.87;;;;;;;8.11;100.00;100024.69;5053254;28;20201;-67
2022/11/15 05:12:37;;;;;;;0.73;0.73;;;;;;;8.14;100.00;100027.22;5051716;28;20274;-66
2022/11/15 05:15:05;;;;;;;0.77;0.77;;;;;;;8.15;100.00;100028.06;5049493;28;20681;-66
2022/11/15 05:17:32;;;;;;;0.80;0.80;;;;;;;8.16;100.00;100033.19;5047133;28;20232;-66
2022/11/15 05:19:59;;;;;;;0.60;0.60;;;;;;;8.16;100.00;100022.97;5050435;28;20744;-66
2022/11/15 05:22:25;;;;;;;2.30;0.93;;;;;;;8.14;100.00;100029.78;5049489;28;20209;-66
2022/11/15 05:24:54;;;;;;;0.60;0.60;;;;;;;8.13;100.00;100028.09;5051845;28;20207;-66
2022/11/15 05:27:20;;;;;;;0.60;0.60;;;;;;;8.15;100.00;100018.72;5052831;28;20193;-66
2022/11/15 05:29:47;;;;;;;0.57;0.57;;;;;;;8.12;100.00;100017.88;5052585;28;20208;-66
2022/11/15 05:32:14;;;;;;;0.70;0.70;;;;;;;8.17;100.00;100019.56;5052742;28;20197;-66
2022/11/15 05:34:41;;;;;;;0.60;0.60;;;;;;;8.19;100.00;100022.06;5053255;28;20703;-67
2022/11/15 05:37:08;;;;;;;0.60;0.60;;;;;;;8.16;100.00;100022.97;5052631;28;20643;-66
2022/11/15 05:39:35;;;;;;;0.90;0.90;;;;;;;8.17;100.00;100024.66;5052645;28;20204;-66
2022/11/15 05:42:08;;;;;;;0.60;0.60;;;;;;;8.20;100.00;100028.88;5051780;28;20200;-66
2022/11/15 05:44:37;;;;;;;0.87;0.67;;;;;;;8.19;100.00;100025.47;5052659;28;20219;-67
2022/11/15 05:47:06;;;;;;;0.40;0.40;;;;;;;8.16;100.00;100022.13;5052090;28;20272;-66
2022/11/15 05:49:36;;;;;;;0.57;0.57;;;;;;;8.12;100.00;100028.97;5052419;28;20200;-66
2022/11/15 05:52:06;;;;;;;0.50;0.50;;;;;;;8.06;100.00;100034.13;5052414;28;20216;-66
2022/11/15 05:54:33;;;;;;;0.70;0.70;;;;;;;8.07;100.00;100038.38;5052337;28;20276;-66
2022/11/15 05:57:00;;;;;;;0.63;0.63;;;;;;;8.06;100.00;100046.91;5051492;28;20220;-66
2022/11/15 05:59:31;;;;;;;0.70;0.70;;;;;;;8.05;100.00;100047.75;5051904;28;20208;-66
2022/11/15 06:01:58;;;;;;;6.40;1.60;;;;;;;8.06;100.00;100044.34;5051559;28;20235;-66
2022/11/15 06:04:25;;;;;;;0.70;0.70;;;;;;;8.05;100.00;100040.09;5052056;28;20566;-66
2022/11/15 06:06:51;;;;;;;0.60;0.60;;;;;;;8.04;100.00;100045.22;5051701;28;20748;-66
2022/11/15 06:09:18;;;;;;;1.37;1.37;;;;;;;8.03;100.00;100044.38;5052078;28;20585;-67
2022/11/15 06:11:45;;;;;;;0.40;0.40;;;;;;;7.98;100.00;100045.28;5052301;28;20197;-66
2022/11/15 06:14:12;;;;;;;0.60;0.60;;;;;;;8.01;100.00;100048.66;5050946;28;20205;-66
2022/11/15 06:16:40;;;;;;;0.60;0.60;;;;;;;8.00;100.00;100048.66;5048772;28;20236;-66
2022/11/15 06:19:08;;;;;;;0.80;0.80;;;;;;;7.93;100.00;100045.31;5050621;28;20197;-64
2022/11/15 06:21:34;;;;;;;0.60;0.60;;;;;;;7.97;100.00;100044.44;5051116;28;20799;-65
2022/11/15 06:24:01;;;;;;;0.43;0.43;;;;;;;7.96;100.00;100045.28;5050432;28;20262;-65
2022/11/15 06:26:28;;;;;;;0.50;0.50;;;;;;;7.98;100.00;100043.56;5050566;28;20204;-66
2022/11/15 06:28:55;;;;;;;0.40;0.40;;;;;;;8.03;100.00;100041.81;5051907;28;20212;-65
2022/11/15 06:31:22;;;;;;;0.60;0.60;;;;;;;8.08;100.00;100045.16;5050143;28;20204;-66
2022/11/15 06:33:50;;;;;;;0.50;0.50;;;;;;;8.13;100.00;100035.75;5050305;28;20668;-66
2022/11/15 06:36:17;;;;;;;0.50;0.50;;;;;;;8.16;100.00;100037.44;5051602;28;20727;-67
2022/11/15 06:38:45;;;;;;;0.50;0.50;;;;;;;8.19;100.00;100040.81;5048789;28;20719;-67
2022/11/15 06:41:13;;;;;;;0.70;0.70;;;;;;;8.15;100.00;100045.94;5049915;28;20208;-66
2022/11/15 06:43:40;;;;;;;1.03;1.03;;;;;;;8.11;100.00;100040.03;5049800;28;20208;-68
2022/11/15 06:46:08;;;;;;;0.70;0.70;;;;;;;8.02;100.00;100039.28;5047427;28;20209;-68
2022/11/15 06:48:35;;;;;;;0.50;0.50;;;;;;;8.16;100.00;100048.50;5048870;28;20209;-66
2022/11/15 06:51:05;;;;;;;0.60;0.60;;;;;;;8.17;100.00;100037.44;5050698;28;20239;-68
2022/11/15 06:53:33;;;;;;;0.80;0.80;;;;;;;8.18;100.00;100041.66;5047944;28;20224;-65
2022/11/15 06:56:01;;;;;;;0.60;0.60;;;;;;;8.32;100.00;100049.22;5049274;28;20196;-66
2022/11/15 06:58:27;;;;;;;0.90;0.90;;;;;;;8.38;100.00;100055.09;5049904;28;20295;-66
2022/11/15 07:00:55;;;;;;;0.97;0.97;;;;;;;8.43;100.00;100042.28;5050273;28;20211;-66
2022/11/15 07:03:21;;;;;;;1.10;1.10;;;;;;;8.47;100.00;100043.06;5050364;28;20319;-66
2022/11/15 07:05:53;;;;;;;0.70;0.70;;;;;;;8.45;100.00;100040.56;5050257;28;20208;-66
2022/11/15 07:08:21;;;;;;;0.70;0.70;;;;;;;8.58;100.00;100031.03;5050214;28;20238;-66
2022/11/15 07:10:48;;;;;;;0.50;0.50;;;;;;;8.70;100.00;100041.09;5049976;28;20212;-65
2022/11/15 07:13:15;;;;;;;1.27;1.03;;;;;;;8.79;100.00;100030.75;5048439;28;20566;-66
2022/11/15 07:15:42;;;;;;;0.90;0.90;;;;;;;8.86;100.00;100027.25;5046548;28;20216;-65
2022/11/15 07:18:08;;;;;;;0.50;0.50;;;;;;;8.91;100.00;100031.47;5049526;28;20212;-66
2022/11/15 07:20:35;;;;;;;0.50;0.50;;;;;;;9.00;100.00;100029.63;5049970;28;20208;-66
2022/11/15 07:23:03;;;;;;;0.50;0.50;;;;;;;9.14;100.00;100022.63;5049953;28;20204;-66
2022/11/15 07:25:31;;;;;;;0.50;0.50;;;;;;;9.11;100.00;100032.91;5048702;28;20640;-66
2022/11/15 07:27:58;;;;;;;0.60;0.60;;;;;;;9.28;100.00;100026.66;5048698;28;20798;-65
2022/11/15 07:30:26;;;;;;;0.60;0.60;;;;;;;9.45;100.00;100034.09;5045526;28;20690;-66
2022/11/15 07:32:54;;;;;;;0.63;0.63;;;;;;;9.53;100.00;100031.41;5046799;28;20247;-66
2022/11/15 07:35:21;;;;;;;0.60;0.60;;;;;;;9.61;100.00;100038.09;5049891;28;20635;-66
2022/11/15 07:37:54;;;;;;;0.70;0.70;;;;;;;9.74;100.00;100028.50;5050223;28;20281;-66
2022/11/15 07:40:21;;;;;;;0.70;0.70;;;;;;;9.83;100.00;100033.44;5048713;28;20204;-66
2022/11/15 07:42:56;;;;;;;1.13;1.13;;;;;;;9.88;100.00;100024.00;5049687;28;20676;-66
2022/11/15 07:45:26;;;;;;;0.97;0.97;;;;;;;9.95;100.00;100025.59;5045131;28;20207;-66
2022/11/15 07:47:53;;;;;;;0.60;0.60;;;;;;;10.01;100.00;100026.31;5048466;28;20215;-66
2022/11/15 07:50:21;;;;;;;0.40;0.40;;;;;;;10.11;100.00;100026.16;5048691;28;20635;-66
2022/11/15 07:52:48;;;;;;;0.80;0.80;;;;;;;10.12;100.00;100023.53;5048136;28;20208;-66
2022/11/15 07:55:15;;;;;;;1.13;1.13;;;;;;;10.18;100.00;100028.56;5047104;28;20232;-66
2022/11/15 07:57:41;;;;;;;0.70;0.70;;;;;;;10.22;100.00;100025.09;5049156;28;20224;-66
2022/11/15 08:00:11;;;;;;;0.70;0.70;;;;;;;10.21;100.00;100028.53;5045076;28;20637;-66
2022/11/15 08:02:38;;;;;;;0.53;0.53;;;;;;;10.30;100.00;100023.25;5047511;28;20668;-66
2022/11/15 08:05:05;;;;;;;0.50;0.50;;;;;;;10.34;100.00;100019.72;5046548;28;20227;-66
2022/11/15 08:07:32;;;;;;;0.70;0.70;;;;;;;10.40;100.00;100008.53;5045060;28;20270;-66
2022/11/15 08:10:00;;;;;;;0.40;0.40;;;;;;;10.47;100.00;100021.19;5048427;28;20201;-67
2022/11/15 08:12:29;;;;;;;0.47;0.47;;;;;;;10.56;100.00;100019.31;5044405;28;20234;-66
2022/11/15 08:14:57;;;;;;;0.57;0.57;;;;;;;10.60;100.00;100020.97;5048130;28;20215;-66
2022/11/15 08:17:26;;;;;;;0.80;0.80;;;;;;;10.64;100.00;100022.56;5049366;28;20228;-66
2022/11/15 08:19:53;;;;;;;0.93;0.93;;;;;;;10.66;100.00;100016.53;5050034;28;20201;-66
2022/11/15 08:22:20;;;;;;;0.50;0.50;;;;;;;10.70;100.00;100022.44;5049487;28;20239;-66
2022/11/15 08:24:47;;;;;;;0.57;0.57;;;;;;;10.70;100.00;100017.31;5049163;28;20209;-66
2022/11/15 08:27:18;;;;;;;0.90;0.90;;;;;;;10.84;100.00;100017.88;5048851;28;20193;-66
2022/11/15 08:29:46;;;;;;;1.17;1.17;;;;;;;10.86;100.00;100023.78;5046703;28;20628;-66
2022/11/15 08:32:13;;;;;;;0.53;0.53;;;;;;;10.93;100.00;100015.09;5047809;28;20688;-67
2022/11/15 08:34:41;;;;;;;1.17;0.90;;;;;;;11.03;100.00;100019.16;5048830;28;20208;-68
2022/11/15 08:37:07;;;;;;;0.40;0.40;;;;;;;11.15;100.00;100011.16;5045663;28;20739;-67
2022/11/15 08:39:34;;;;;;;1.60;1.60;;;;;;;11.25;100.00;100012.66;5048601;28;20208;-68
2022/11/15 08:42:01;;;;;;;0.50;0.50;;;;;;;11.32;100.00;100018.50;5053189;28;20205;-67
2022/11/15 08:44:28;;;;;;;0.53;0.53;;;;;;;11.38;100.00;100008.91;5054256;28;20231;-66
2022/11/15 08:46:55;;;;;;;0.57;0.57;;;;;;;11.51;100.00;99994.91;5053271;28;20204;-67
2022/11/15 08:49:21;;;;;;;1.00;1.00;;;;;;;11.63;100.00;100008.34;5051065;28;20603;-67
2022/11/15 08:51:50;;;;;;;0.77;0.77;;;;;;;11.66;100.00;99993.69;5052972;28;20209;-70
2022/11/15 08:54:17;;;;;;;0.80;0.80;;;;;;;11.95;100.00;99995.56;5051027;28;20274;-68
2022/11/15 08:56:43;;;;;;;1.10;1.10;;;;;;;12.01;99.66;99993.66;5052839;28;21342;-67
2022/11/15 08:59:10;;;;;;;0.60;0.60;;;;;;;12.06;98.90;99991.81;5053242;28;20635;-67
2022/11/15 09:01:37;;;;;;;0.53;0.53;;;;;;;12.26;100.00;99988.69;5053144;28;20205;-67
2022/11/15 09:04:04;;;;;;;0.93;0.93;;;;;;;12.31;98.29;99989.41;5053673;28;20322;-67
2022/11/15 09:06:31;;;;;;;0.60;0.60;;;;;;;12.31;98.33;99984.25;5053013;28;20258;-67
2022/11/15 09:09:01;;;;;;;0.60;0.60;;;;;;;12.41;99.63;99980.56;5053207;28;20200;-67
2022/11/15 09:11:28;;;;;;;0.83;0.83;;;;;;;12.48;98.23;99970.94;5050998;28;20209;-66
2022/11/15 09:13:55;;;;;;;0.90;0.90;;;;;;;12.64;99.77;99967.88;5053494;28;20201;-67
2022/11/15 09:16:22;;;;;;;0.70;0.70;;;;;;;12.78;98.20;99964.06;5053402;28;20224;-67
2022/11/15 09:18:49;;;;;;;0.50;0.50;;;;;;;12.75;99.75;99941.84;5052880;28;20304;-67
2022/11/15 09:21:15;;;;;;;0.50;0.50;;;;;;;12.89;98.42;99952.53;5053050;28;20205;-65
2022/11/15 09:23:42;;;;;;;0.40;0.40;;;;;;;12.96;98.70;99948.03;5053056;28;20193;-65
2022/11/15 09:26:10;;;;;;;1.30;1.30;;;;;;;13.01;95.78;99951.31;5052063;28;20205;-67
2022/11/15 09:28:41;;;;;;;0.80;0.80;;;;;;;13.03;95.98;99944.38;5051934;28;20201;-66
2022/11/15 09:31:08;;;;;;;0.60;0.60;;;;;;;13.15;95.37;99938.88;5052454;28;20558;-67
2022/11/15 09:33:35;;;;;;;0.50;0.50;;;;;;;13.02;95.72;99938.41;5052910;28;20200;-68
2022/11/15 09:36:03;;;;;;;0.77;0.77;;;;;;;12.92;96.66;99911.28;5051105;28;20212;-65
2022/11/15 09:38:30;;;;;;;0.50;0.50;;;;;;;13.04;96.58;99925.50;5051461;28;20708;-66
2022/11/15 09:41:19;;;;;;;0.67;0.67;;;;;;;12.91;96.26;99931.91;5052846;28;20871;-65
2022/11/15 09:43:51;;;;;;;0.60;0.60;;;;;;;12.89;97.55;99919.06;5048937;28;20205;-65
2022/11/15 09:46:29;;;;;;;2.57;2.30;;;;;;;12.74;98.09;99918.72;5052000;28;20208;-66
2022/11/15 09:48:57;;;;;;;0.87;0.87;;;;;;;12.89;98.66;99902.81;5050428;28;20204;-66
2022/11/15 09:51:28;;;;;;;0.50;0.50;;;;;;;13.01;98.13;99916.16;5046686;28;20224;-66
2022/11/15 09:54:12;;;;;;;0.50;0.50;;;;;;;13.00;97.45;99909.31;5050083;28;20205;-68
2022/11/15 09:56:43;;;;;;;5.40;1.27;;;;;;;13.05;97.52;99901.44;5047877;28;20219;-69
2022/11/15 09:59:24;;;;;;;0.50;0.50;;;;;;;13.10;96.69;99909.88;5050496;28;20199;-66
2022/11/15 10:02:00;;;;;;;1.13;1.13;;;;;;;12.88;96.65;99899.41;5049511;28;20211;-67
2022/11/15 10:04:28;;;;;;;0.73;0.73;;;;;;;12.81;97.65;99897.06;5052153;28;20287;-67
2022/11/15 10:07:02;;;;;;;0.80;0.80;;;;;;;12.83;97.53;99884.97;5052946;28;20204;-69
2022/11/15 10:09:36;;;;;;;2.73;0.80;;;;;;;12.96;97.56;99881.13;5049715;28;20258;-68
2022/11/15 10:12:05;;;;;;;0.63;0.63;;;;;;;12.92;97.48;99884.72;5050500;28;20200;-68
2022/11/15 10:14:32;;;;;;;1.47;1.47;;;;;;;13.03;98.10;99878.31;5051112;28;20224;-68
2022/11/15 10:17:22;;;;;;;0.80;0.80;;;;;;;13.07;98.19;99873.91;5051038;28;20770;-68
2022/11/15 10:19:59;;;;;;;0.57;0.57;;;;;;;13.08;97.21;99873.03;5042348;28;20219;-68
2022/11/15 10:22:29;;;;;;;0.50;0.50;;;;;;;13.17;97.95;99865.03;5049229;28;20204;-68
2022/11/15 10:25:13;;;;;;;0.77;0.77;;;;;;;13.22;98.71;99857.97;5050077;28;20197;-66
2022/11/15 10:27:44;;;;;;;1.07;1.07;;;;;;;13.30;97.13;99863.72;5046463;28;20533;-66
2022/11/15 10:30:15;;;;;;;0.70;0.70;;;;;;;13.25;95.92;99872.50;5050292;28;20208;-66
2022/11/15 10:32:44;;;;;;;0.93;0.93;;;;;;;13.27;96.16;99861.25;5049313;28;20205;-65
2022/11/15 10:35:24;;;;;;;0.40;0.40;;;;;;;13.31;95.55;99857.66;5049374;28;20204;-66
2022/11/15 10:37:51;;;;;;;0.93;0.80;;;;;;;13.33;95.10;99858.47;5048187;28;20362;-66
2022/11/15 10:40:21;;;;;;;0.90;0.90;;;;;;;13.40;93.75;99841.09;5048939;28;20673;-66
2022/11/15 10:43:04;;;;;;;1.13;1.13;;;;;;;13.36;93.80;99840.34;5049115;28;20200;-67
2022/11/15 10:45:32;;;;;;;0.40;0.40;;;;;;;13.37;93.75;99838.63;5050367;28;20208;-66
2022/11/15 10:48:23;;;;;;;0.57;0.57;;;;;;;13.47;94.46;99832.25;5051192;28;20211;-66
2022/11/15 10:50:51;;;;;;;0.60;0.60;;;;;;;13.48;94.53;99831.34;5046617;28;20720;-66
2022/11/15 10:53:23;;;;;;;0.70;0.70;;;;;;;13.51;94.34;99829.50;5044673;28;20212;-66
2022/11/15 10:55:54;;;;;;;0.40;0.40;;;;;;;13.56;93.17;99826.78;5038762;28;20209;-66
2022/11/15 10:58:30;;;;;;;0.80;0.80;;;;;;;13.64;93.94;99819.59;5049167;28;20232;-67
2022/11/15 11:01:10;;;;;;;0.50;0.50;;;;;;;13.55;91.23;99815.63;5049887;28;20205;-67
2022/11/15 11:03:38;;;;;;;0.80;0.80;;;;;;;13.68;91.53;99810.88;5050391;28;20212;-66
2022/11/15 11:06:08;;;;;;;0.43;0.43;;;;;;;13.70;90.96;99813.41;5050471;28;20750;-66
2022/11/15 11:08:35;;;;;;;0.60;0.60;;;;;;;13.75;90.93;99804.59;5049623;28;20207;-66
2022/11/15 11:11:03;;;;;;;0.60;0.60;;;;;;;13.79;88.54;99801.03;5048614;28;20207;-66
2022/11/15 11:13:33;;;;;;;0.50;0.50;;;;;;;13.83;89.18;99799.19;5050012;28;20201;-67
2022/11/15 11:16:19;;;;;;;0.60;0.60;;;;;;;13.86;88.26;99799.06;5049095;28;20224;-66
2022/11/15 11:18:55;;;;;;;0.67;0.67;;;;;;;13.88;85.69;99794.69;5052474;28;20232;-65
2022/11/15 11:21:32;;;;;;;0.70;0.70;;;;;;;13.97;87.20;99796.91;5049766;28;20542;-65
2022/11/15 11:24:07;;;;;;;0.80;0.80;;;;;;;14.04;86.53;99793.22;5049028;28;20200;-66
2022/11/15 11:26:43;;;;;;;0.93;0.93;;;;;;;14.04;87.63;99767.44;5050263;28;20634;-66
2022/11/15 11:29:28;;;;;;;0.60;0.60;;;;;;;14.15;85.55;99778.19;5050591;28;20610;-67
2022/11/15 11:32:04;;;;;;;0.53;0.53;;;;;;;14.16;85.54;99759.22;5047793;28;20261;-66
2022/11/15 11:34:48;;;;;;;0.53;0.53;;;;;;;14.17;86.11;99768.63;5050127;28;20558;-66
2022/11/15 11:37:22;;;;;;;1.03;1.03;;;;;;;14.07;85.78;99763.00;5050495;28;20239;-66
2022/11/15 11:40:01;;;;;;;0.60;0.60;;;;;;;14.14;86.31;99758.44;5050669;28;20204;-66
2022/11/15 11:42:43;;;;;;;1.23;1.17;;;;;;;14.11;86.15;99754.25;5049844;28;20205;-65
2022/11/15 11:45:23;;;;;;;0.50;0.50;;;;;;;14.28;86.86;99745.00;5049016;28;20223;-67
2022/11/15 11:47:57;;;;;;;0.95;0.95;;;;;;;14.44;86.56;99746.94;5049678;28;20431;-67
2022/11/15 11:50:27;;;;;;;0.80;0.80;;;;;;;14.64;85.76;99741.81;5050272;28;20193;-67